Time;durP1;ratioP1;P1;durP2;ratioP2;P2;SDS_P1;SDS_P2;PMS_P1;PMS_P2;Temp;Humidity;BMP_temperature;BMP_pressure;BME280_temperature;BME280_humidity;BME280_pressure;Samples;Min_cycle;Max_cycle;Signal;HPM_P1;HPM_P2
2023/08/06 00:01:50;;;;;;;7.38;1.88;;;27.20;99.90;;;;;;5008102;23;20046;-49
2023/08/06 00:04:16;;;;;;;8.02;3.47;;;27.20;99.90;;;;;;4995525;28;20058;-50
2023/08/06 00:06:42;;;;;;;3.08;1.17;;;27.10;99.90;;;;;;4995863;28;20022;-49
2023/08/06 00:09:08;;;;;;;6.70;1.58;;;27.10;99.90;;;;;;4995675;28;20034;-49
2023/08/06 00:11:34;;;;;;;9.25;1.42;;;27.10;99.90;;;;;;4995597;28;20014;-49
2023/08/06 00:14:00;;;;;;;2.22;1.02;;;27.20;99.90;;;;;;4995831;28;20018;-49
2023/08/06 00:16:25;;;;;;;5.55;1.13;;;27.10;99.90;;;;;;4995650;28;20359;-49
2023/08/06 00:18:51;;;;;;;7.60;1.35;;;27.10;99.90;;;;;;4995328;28;20026;-50
2023/08/06 00:21:17;;;;;;;4.25;1.05;;;27.10;99.90;;;;;;4995556;28;20019;-49
2023/08/06 00:23:43;;;;;;;4.10;1.02;;;27.10;99.90;;;;;;4995303;28;20038;-49
2023/08/06 00:26:09;;;;;;;6.78;1.45;;;27.10;99.90;;;;;;4995209;28;20054;-49
2023/08/06 00:28:34;;;;;;;2.47;1.23;;;27.00;99.90;;;;;;4995225;28;20030;-49
2023/08/06 00:31:00;;;;;;;9.05;1.80;;;27.00;99.90;;;;;;4995672;28;20018;-49
2023/08/06 00:33:26;;;;;;;8.23;1.60;;;27.00;99.90;;;;;;4995121;28;20073;-49
2023/08/06 00:35:52;;;;;;;9.25;1.65;;;27.00;99.90;;;;;;4995130;28;20022;-49
2023/08/06 00:38:18;;;;;;;9.57;1.80;;;27.00;99.90;;;;;;4995200;28;20030;-50
2023/08/06 00:40:43;;;;;;;4.28;1.60;;;27.00;99.90;;;;;;4994823;28;20534;-50
2023/08/06 00:43:09;;;;;;;5.90;1.52;;;26.90;99.90;;;;;;4994273;28;20150;-50
2023/08/06 00:45:36;;;;;;;3.70;1.50;;;26.90;99.90;;;;;;4995131;28;20061;-49
2023/08/06 00:48:04;;;;;;;13.02;2.05;;;26.90;99.90;;;;;;4995119;28;20108;-49
2023/08/06 00:50:30;;;;;;;7.53;2.05;;;26.90;99.90;;;;;;4995166;28;20042;-50
2023/08/06 00:52:57;;;;;;;3.38;1.67;;;26.90;99.90;;;;;;4994997;28;20031;-49
2023/08/06 00:55:23;;;;;;;4.95;2.22;;;26.90;99.90;;;;;;4994572;28;20033;-49
2023/08/06 00:57:51;;;;;;;6.90;2.58;;;26.90;99.90;;;;;;4995014;28;20414;-49
2023/08/06 01:00:16;;;;;;;4.68;1.90;;;26.90;99.90;;;;;;4995247;28;20022;-49
2023/08/06 01:02:42;;;;;;;5.75;2.53;;;26.90;99.90;;;;;;4994369;28;20093;-48
2023/08/06 01:05:08;;;;;;;3.90;2.10;;;26.90;99.90;;;;;;4994670;28;20485;-49
2023/08/06 01:08:00;;;;;;;5.50;2.25;;;26.90;99.90;;;;;;4994830;28;20061;-49
2023/08/06 01:10:34;;;;;;;7.28;1.58;;;26.90;99.90;;;;;;4994467;28;20050;-49
2023/08/06 01:13:38;;;;;;;3.13;1.67;;;26.90;99.90;;;;;;4981593;28;20025;-49
2023/08/06 01:16:05;;;;;;;6.05;2.00;;;26.90;99.90;;;;;;4994401;28;20026;-48
2023/08/06 01:18:31;;;;;;;4.28;2.22;;;26.90;99.90;;;;;;4994607;28;20018;-50
2023/08/06 01:20:57;;;;;;;8.32;1.73;;;26.90;99.90;;;;;;4994215;28;20134;-48
2023/08/06 01:23:24;;;;;;;10.95;1.83;;;26.90;99.90;;;;;;4994195;28;20109;-49
2023/08/06 01:26:05;;;;;;;9.43;2.15;;;26.90;99.90;;;;;;4994326;28;20026;-50
2023/08/06 01:28:58;;;;;;;2.95;1.40;;;26.90;99.90;;;;;;4994263;28;20114;-49
2023/08/06 01:31:36;;;;;;;2.75;1.27;;;26.90;99.90;;;;;;4982544;28;20061;-49
2023/08/06 01:34:05;;;;;;;3.80;1.48;;;26.90;99.90;;;;;;4994333;28;20060;-49
2023/08/06 01:36:31;;;;;;;4.80;1.50;;;26.90;99.90;;;;;;4994415;28;20033;-49
2023/08/06 01:38:57;;;;;;;3.22;1.20;;;26.90;99.90;;;;;;4994072;28;20022;-50
2023/08/06 01:41:23;;;;;;;4.95;1.90;;;26.80;99.90;;;;;;4993986;28;20022;-50
2023/08/06 01:43:49;;;;;;;4.25;1.50;;;26.80;99.90;;;;;;4993727;28;20049;-49
2023/08/06 01:46:14;;;;;;;4.85;1.30;;;26.80;99.90;;;;;;4994163;28;20022;-49
2023/08/06 01:48:40;;;;;;;7.20;1.52;;;26.80;99.90;;;;;;4994017;28;20121;-50
2023/08/06 01:51:07;;;;;;;3.08;1.08;;;26.80;99.90;;;;;;4994164;28;20035;-49
2023/08/06 01:53:33;;;;;;;4.05;1.52;;;26.80;99.90;;;;;;4993545;28;20396;-50
2023/08/06 01:55:59;;;;;;;4.55;1.15;;;26.80;99.90;;;;;;4993789;28;20046;-49
2023/08/06 01:58:25;;;;;;;2.80;1.30;;;26.80;99.90;;;;;;4993726;28;20081;-49
2023/08/06 02:00:50;;;;;;;7.93;1.52;;;26.70;99.90;;;;;;4994030;28;20062;-50
2023/08/06 02:03:16;;;;;;;2.65;1.40;;;26.80;99.90;;;;;;4993529;28;20065;-50
2023/08/06 02:05:42;;;;;;;4.07;1.30;;;26.70;99.90;;;;;;4993600;28;20014;-50
2023/08/06 02:08:08;;;;;;;7.88;1.50;;;26.70;99.90;;;;;;4993964;28;20463;-49
2023/08/06 02:10:34;;;;;;;5.35;1.95;;;26.70;99.90;;;;;;4992067;28;20459;-49
2023/08/06 02:12:59;;;;;;;10.85;2.25;;;26.80;99.90;;;;;;4993499;28;20018;-50
2023/08/06 02:15:25;;;;;;;5.65;1.40;;;26.70;99.90;;;;;;4993258;28;20384;-49
2023/08/06 02:17:51;;;;;;;6.63;1.65;;;26.70;99.90;;;;;;4993114;28;20367;-49
2023/08/06 02:20:17;;;;;;;4.22;1.50;;;26.70;99.90;;;;;;4993166;28;20027;-49
2023/08/06 02:22:42;;;;;;;9.80;1.40;;;26.70;99.90;;;;;;4993295;28;20034;-50
2023/08/06 02:25:08;;;;;;;4.93;1.40;;;26.80;99.90;;;;;;4992136;28;20558;-50
2023/08/06 02:27:34;;;;;;;5.88;1.40;;;26.70;99.90;;;;;;4993109;28;20395;-49
2023/08/06 02:30:00;;;;;;;7.05;3.67;;;26.80;99.90;;;;;;4993176;28;20087;-50
2023/08/06 02:32:26;;;;;;;8.00;2.75;;;26.80;99.90;;;;;;4992912;28;20022;-49
2023/08/06 02:34:52;;;;;;;4.60;2.55;;;26.80;99.90;;;;;;4993137;28;20030;-50
2023/08/06 02:37:17;;;;;;;3.50;1.60;;;26.80;99.90;;;;;;4992782;28;20049;-49
2023/08/06 02:39:43;;;;;;;3.70;1.63;;;26.80;99.90;;;;;;4992971;28;20026;-49
2023/08/06 02:42:09;;;;;;;7.80;1.83;;;26.70;99.90;;;;;;4993028;28;20079;-49
2023/08/06 02:44:35;;;;;;;3.97;1.70;;;26.80;99.90;;;;;;4992885;28;20034;-50
2023/08/06 02:47:01;;;;;;;10.30;2.85;;;26.70;99.90;;;;;;4992550;28;20876;-49
2023/08/06 02:49:27;;;;;;;7.70;2.13;;;26.70;99.90;;;;;;4992920;28;20393;-50
2023/08/06 02:51:53;;;;;;;5.28;2.05;;;26.70;99.90;;;;;;4992687;28;20026;-49
2023/08/06 02:54:19;;;;;;;5.32;2.17;;;26.70;99.90;;;;;;4992890;28;20026;-50
2023/08/06 02:56:46;;;;;;;3.60;1.90;;;26.70;99.90;;;;;;4992560;28;20026;-49
2023/08/06 02:59:12;;;;;;;6.65;2.00;;;26.60;99.90;;;;;;4992919;28;20018;-49
2023/08/06 03:01:38;;;;;;;3.17;1.63;;;26.60;99.90;;;;;;4993367;28;20125;-49
2023/08/06 03:04:04;;;;;;;4.28;1.80;;;26.60;99.90;;;;;;4992468;28;20105;-49
2023/08/06 03:06:30;;;;;;;4.80;1.65;;;26.60;99.90;;;;;;4992205;28;20022;-49
2023/08/06 03:08:56;;;;;;;5.68;1.92;;;26.50;99.90;;;;;;4992581;28;20386;-49
2023/08/06 03:11:22;;;;;;;2.15;1.33;;;26.60;99.90;;;;;;4992435;28;20050;-50
2023/08/06 03:13:48;;;;;;;3.05;1.80;;;26.50;99.90;;;;;;4992419;28;20128;-49
2023/08/06 03:16:14;;;;;;;6.60;1.70;;;26.50;99.90;;;;;;4992457;28;20019;-50
2023/08/06 03:18:40;;;;;;;4.22;1.88;;;26.50;99.90;;;;;;4992578;28;20493;-50
2023/08/06 03:21:06;;;;;;;4.53;1.92;;;26.50;99.90;;;;;;4992389;28;20022;-49
2023/08/06 03:23:32;;;;;;;7.57;3.75;;;26.50;99.90;;;;;;4992375;28;20463;-50
2023/08/06 03:26:04;;;;;;;11.13;5.78;;;26.50;99.90;;;;;;4992367;28;20114;-49
2023/08/06 03:28:30;;;;;;;8.40;3.47;;;26.50;99.90;;;;;;4992123;28;20026;-50
2023/08/06 03:31:02;;;;;;;7.55;2.92;;;26.50;99.90;;;;;;4992519;28;20022;-49
2023/08/06 03:33:28;;;;;;;5.60;2.58;;;26.50;99.90;;;;;;4992379;28;20493;-49
2023/08/06 03:35:54;;;;;;;6.85;2.95;;;26.50;99.90;;;;;;4979648;28;20018;-49
2023/08/06 03:38:20;;;;;;;7.28;3.47;;;26.50;99.90;;;;;;4992296;28;20049;-50
2023/08/06 03:40:47;;;;;;;7.82;3.47;;;26.50;99.90;;;;;;4992077;28;20027;-50
2023/08/06 03:43:12;;;;;;;8.90;2.95;;;26.50;99.90;;;;;;4992645;28;20105;-49
2023/08/06 03:45:38;;;;;;;6.85;3.33;;;26.60;99.90;;;;;;4992162;28;20054;-50
2023/08/06 03:48:04;;;;;;;8.57;2.85;;;26.60;99.90;;;;;;4992075;28;20495;-51
2023/08/06 03:50:30;;;;;;;8.93;3.15;;;26.60;99.90;;;;;;4992156;28;20445;-50
2023/08/06 03:52:56;;;;;;;9.40;2.88;;;26.60;99.90;;;;;;4991059;28;20044;-50
2023/08/06 03:55:22;;;;;;;7.78;3.58;;;26.60;99.90;;;;;;4991972;28;20102;-50
2023/08/06 03:57:47;;;;;;;13.43;3.15;;;26.60;99.90;;;;;;4992134;28;20101;-49
2023/08/06 04:00:13;;;;;;;6.88;2.47;;;26.70;99.90;;;;;;4992252;28;20532;-50
2023/08/06 04:02:39;;;;;;;7.55;2.58;;;26.70;99.90;;;;;;4992343;28;20403;-49
2023/08/06 04:05:05;;;;;;;9.30;3.45;;;26.70;99.90;;;;;;4992201;28;20112;-49
2023/08/06 04:07:31;;;;;;;4.95;2.90;;;26.70;99.90;;;;;;4991809;28;20022;-50
2023/08/06 04:10:02;;;;;;;4.22;2.47;;;26.80;99.90;;;;;;4991915;28;20030;-50
2023/08/06 04:12:28;;;;;;;7.53;2.25;;;26.80;99.90;;;;;;4991721;28;20022;-50
2023/08/06 04:14:55;;;;;;;6.53;2.63;;;26.80;99.90;;;;;;4991992;28;20022;-50
2023/08/06 04:17:22;;;;;;;9.77;2.55;;;26.80;99.90;;;;;;4993737;28;20036;-50
2023/08/06 04:19:53;;;;;;;7.13;2.33;;;26.80;99.90;;;;;;4995562;28;20026;-49
2023/08/06 04:22:20;;;;;;;11.15;3.28;;;26.80;99.90;;;;;;4995400;28;20426;-50
2023/08/06 04:24:46;;;;;;;8.30;2.53;;;26.80;99.90;;;;;;4995628;28;20395;-49
2023/08/06 04:27:13;;;;;;;17.10;3.63;;;26.80;99.90;;;;;;4993969;28;20036;-50
2023/08/06 04:29:38;;;;;;;18.63;3.77;;;26.90;99.90;;;;;;4995271;28;20090;-50
2023/08/06 04:32:06;;;;;;;15.88;4.28;;;26.90;99.90;;;;;;4995143;28;20062;-50
2023/08/06 04:34:32;;;;;;;18.30;5.30;;;26.90;99.90;;;;;;4995344;28;20033;-50
2023/08/06 04:36:59;;;;;;;22.80;4.68;;;26.90;99.90;;;;;;4995297;28;20022;-49
2023/08/06 04:39:24;;;;;;;11.32;3.58;;;26.90;99.90;;;;;;4993772;28;20229;-50
2023/08/06 04:41:50;;;;;;;9.68;2.78;;;26.90;99.90;;;;;;4995228;28;20556;-50
2023/08/06 04:44:16;;;;;;;9.13;2.90;;;26.90;99.90;;;;;;4995060;28;20117;-49
2023/08/06 04:46:42;;;;;;;7.07;2.70;;;26.80;99.90;;;;;;4994951;28;20026;-49
2023/08/06 04:49:08;;;;;;;8.65;2.85;;;26.80;99.90;;;;;;4994716;28;20062;-50
2023/08/06 04:51:33;;;;;;;5.93;2.55;;;26.70;99.90;;;;;;4994953;28;20029;-50
2023/08/06 04:53:59;;;;;;;4.05;2.50;;;26.60;99.90;;;;;;4994725;28;20466;-49
2023/08/06 04:56:25;;;;;;;5.35;2.30;;;26.60;99.90;;;;;;4994754;28;20034;-49
2023/08/06 04:58:51;;;;;;;6.93;2.60;;;26.50;99.90;;;;;;4994747;28;20027;-49
2023/08/06 05:01:17;;;;;;;10.07;2.97;;;26.40;99.90;;;;;;4995126;28;20054;-49
2023/08/06 05:03:42;;;;;;;7.88;2.28;;;26.40;99.90;;;;;;4994482;28;20034;-49
2023/08/06 05:06:08;;;;;;;6.68;2.17;;;26.30;99.90;;;;;;4994558;28;20036;-49
2023/08/06 05:08:34;;;;;;;14.93;3.13;;;26.40;99.90;;;;;;4994523;28;20064;-49
2023/08/06 05:11:00;;;;;;;4.25;2.22;;;26.40;99.90;;;;;;4993173;28;20022;-50
2023/08/06 05:13:26;;;;;;;5.10;2.00;;;26.40;99.90;;;;;;4994634;28;20089;-50
2023/08/06 05:15:54;;;;;;;8.98;2.20;;;26.40;99.90;;;;;;4994414;28;20022;-49
2023/08/06 05:18:20;;;;;;;6.43;1.83;;;26.40;99.90;;;;;;4994528;28;20057;-49
2023/08/06 05:20:46;;;;;;;7.13;2.28;;;26.40;99.90;;;;;;4994434;28;20046;-50
2023/08/06 05:23:12;;;;;;;9.13;2.78;;;26.50;99.90;;;;;;4994353;28;20356;-50
2023/08/06 05:25:38;;;;;;;8.25;2.38;;;26.50;99.90;;;;;;4993945;28;20034;-50
2023/08/06 05:28:04;;;;;;;5.20;2.35;;;26.50;99.90;;;;;;4993579;28;20029;-50
2023/08/06 05:30:30;;;;;;;5.45;2.70;;;26.50;99.90;;;;;;4994086;28;20031;-49
2023/08/06 05:32:56;;;;;;;4.55;2.28;;;26.60;99.90;;;;;;4994072;28;20084;-49
2023/08/06 05:35:22;;;;;;;5.80;2.50;;;26.60;99.90;;;;;;4994297;28;20027;-50
2023/08/06 05:37:49;;;;;;;9.65;2.63;;;26.60;99.90;;;;;;4994415;28;20117;-50
2023/08/06 05:40:15;;;;;;;8.68;2.42;;;26.60;99.90;;;;;;4993965;28;20379;-49
2023/08/06 05:42:41;;;;;;;6.70;2.83;;;26.60;99.90;;;;;;4993952;28;20041;-50
2023/08/06 05:45:08;;;;;;;4.28;2.22;;;26.70;99.90;;;;;;4994130;28;20022;-50
2023/08/06 05:47:34;;;;;;;6.70;3.03;;;26.70;99.90;;;;;;4993711;28;20026;-50
2023/08/06 05:49:59;;;;;;;9.43;2.85;;;26.70;99.90;;;;;;4994005;28;20073;-49
2023/08/06 05:52:25;;;;;;;11.02;2.80;;;26.80;99.90;;;;;;4992507;28;20018;-49
2023/08/06 05:54:51;;;;;;;8.13;3.22;;;26.80;99.90;;;;;;4994077;28;20032;-50
2023/08/06 05:57:17;;;;;;;3.92;2.40;;;26.80;99.90;;;;;;4993574;28;20027;-49
2023/08/06 05:59:43;;;;;;;8.98;2.85;;;26.80;99.90;;;;;;4993838;28;20161;-50
2023/08/06 06:02:09;;;;;;;9.63;2.97;;;26.80;99.90;;;;;;4993467;28;20046;-50
2023/08/06 06:04:35;;;;;;;6.75;2.53;;;26.80;99.90;;;;;;4993510;28;20038;-49
2023/08/06 06:07:01;;;;;;;6.05;2.58;;;26.90;99.90;;;;;;4993605;28;20029;-50
2023/08/06 06:09:26;;;;;;;5.80;2.10;;;26.80;99.90;;;;;;4993446;28;20022;-50
2023/08/06 06:11:52;;;;;;;6.40;2.60;;;26.80;99.90;;;;;;4993797;28;20027;-51
2023/08/06 06:14:19;;;;;;;7.70;2.15;;;26.90;99.90;;;;;;4992274;28;20445;-50
2023/08/06 06:16:45;;;;;;;7.53;2.53;;;26.90;99.90;;;;;;4993548;28;20031;-50
2023/08/06 06:19:12;;;;;;;6.53;2.00;;;26.90;99.90;;;;;;4993119;28;20386;-50
2023/08/06 06:21:38;;;;;;;3.60;2.20;;;26.90;99.90;;;;;;4993305;28;20026;-50
2023/08/06 06:24:05;;;;;;;7.50;3.87;;;26.90;99.90;;;;;;4992972;28;20040;-50
2023/08/06 06:26:31;;;;;;;6.20;2.83;;;27.00;99.90;;;;;;4993099;28;20022;-50
2023/08/06 06:28:57;;;;;;;6.47;3.55;;;27.00;99.90;;;;;;4993121;28;20045;-49
2023/08/06 06:31:23;;;;;;;8.50;2.80;;;27.00;99.90;;;;;;4993458;28;20117;-50
2023/08/06 06:33:49;;;;;;;9.85;2.20;;;27.00;99.90;;;;;;4992702;28;20034;-49
2023/08/06 06:36:15;;;;;;;6.53;2.55;;;27.00;99.90;;;;;;4993156;28;20124;-50
2023/08/06 06:38:40;;;;;;;6.00;2.42;;;27.00;99.90;;;;;;4992868;28;20368;-49
2023/08/06 06:41:06;;;;;;;8.48;3.70;;;27.00;99.90;;;;;;4992052;28;20138;-50
2023/08/06 06:43:32;;;;;;;17.58;7.97;;;27.00;99.90;;;;;;4992756;28;20061;-49
2023/08/06 06:46:01;;;;;;;15.50;8.07;;;27.00;99.90;;;;;;4992865;28;20510;-50
2023/08/06 06:48:28;;;;;;;10.65;3.90;;;27.10;99.90;;;;;;4992604;28;20538;-50
2023/08/06 06:50:54;;;;;;;8.57;3.92;;;27.10;99.90;;;;;;4993136;28;20022;-50
2023/08/06 06:53:21;;;;;;;9.05;5.03;;;27.10;99.90;;;;;;4992759;28;20427;-52
2023/08/06 06:55:49;;;;;;;18.63;9.65;;;27.10;99.90;;;;;;4992492;28;20356;-50
2023/08/06 06:58:16;;;;;;;;;;;27.20;99.90;;;;;;4992695;28;20108;-51
2023/08/06 07:00:42;;;;;;;19.85;9.00;;;27.20;99.90;;;;;;4992549;28;19905;-50
2023/08/06 07:03:07;;;;;;;16.35;8.75;;;27.20;99.90;;;;;;4992556;28;20406;-50
2023/08/06 07:05:33;;;;;;;12.13;4.70;;;27.30;99.90;;;;;;4992491;28;20105;-50
2023/08/06 07:07:59;;;;;;;12.48;5.43;;;27.30;99.90;;;;;;4992634;28;20026;-50
2023/08/06 07:10:26;;;;;;;11.60;6.28;;;27.30;99.90;;;;;;4992370;28;20525;-50
2023/08/06 07:12:52;;;;;;;18.85;7.28;;;27.40;99.90;;;;;;4992417;28;20053;-49
2023/08/06 07:15:17;;;;;;;7.97;3.72;;;27.40;99.90;;;;;;4992284;28;20482;-49
2023/08/06 07:17:43;;;;;;;9.45;3.72;;;27.40;99.90;;;;;;4992374;28;20042;-49
2023/08/06 07:20:10;;;;;;;8.52;3.10;;;27.50;99.90;;;;;;4991092;28;20026;-50
2023/08/06 07:22:36;;;;;;;8.27;3.65;;;27.50;99.90;;;;;;4992496;28;20022;-48
2023/08/06 07:25:02;;;;;;;13.35;4.55;;;27.60;99.90;;;;;;4992170;28;20088;-48
2023/08/06 07:27:27;;;;;;;22.95;5.50;;;27.60;99.90;;;;;;4992357;28;20064;-48
2023/08/06 07:29:53;;;;;;;15.70;4.38;;;27.60;99.90;;;;;;4992349;28;20058;-48
2023/08/06 07:32:19;;;;;;;17.67;5.18;;;27.60;99.90;;;;;;4992136;28;20359;-49
2023/08/06 07:34:44;;;;;;;17.13;3.92;;;27.70;99.90;;;;;;4992152;28;20018;-51
2023/08/06 07:37:10;;;;;;;18.33;3.60;;;27.70;99.90;;;;;;4992135;28;20026;-51
2023/08/06 07:39:37;;;;;;;15.65;3.60;;;27.80;99.90;;;;;;4992016;28;20050;-50
2023/08/06 07:42:05;;;;;;;15.25;4.47;;;27.80;99.90;;;;;;4992086;28;20051;-51
2023/08/06 07:44:31;;;;;;;11.98;5.53;;;27.80;99.90;;;;;;4992084;28;20042;-51
2023/08/06 07:46:57;;;;;;;8.23;3.30;;;27.80;99.90;;;;;;4992257;28;20018;-50
2023/08/06 07:49:23;;;;;;;10.20;3.08;;;27.90;99.90;;;;;;4991794;28;20109;-50
2023/08/06 07:51:49;;;;;;;10.00;3.10;;;27.90;99.90;;;;;;4993412;28;20346;-49
2023/08/06 07:54:14;;;;;;;14.02;5.55;;;28.00;99.90;;;;;;4995866;28;20038;-49
2023/08/06 07:56:40;;;;;;;15.27;6.45;;;28.00;99.90;;;;;;4995756;28;20099;-49
2023/08/06 07:59:06;;;;;;;9.02;5.25;;;28.00;99.90;;;;;;4995909;28;20029;-50
2023/08/06 08:01:32;;;;;;;16.88;8.73;;;28.10;99.90;;;;;;4995847;28;20082;-50
2023/08/06 08:03:57;;;;;;;11.40;5.47;;;28.10;99.90;;;;;;4995730;28;20118;-50
2023/08/06 08:06:23;;;;;;;16.50;5.13;;;28.10;99.90;;;;;;4995702;28;20022;-50
2023/08/06 08:08:49;;;;;;;16.15;5.85;;;28.20;99.90;;;;;;4995617;28;20056;-51
2023/08/06 08:11:15;;;;;;;12.10;3.60;;;28.20;99.90;;;;;;4995547;28;20022;-50
2023/08/06 08:13:41;;;;;;;13.07;4.97;;;28.20;99.90;;;;;;4995735;28;20022;-51
2023/08/06 08:16:07;;;;;;;11.88;4.80;;;28.30;99.90;;;;;;4995605;28;20264;-51
2023/08/06 08:18:33;;;;;;;22.20;5.68;;;28.30;99.90;;;;;;4995786;28;20030;-51
2023/08/06 08:20:59;;;;;;;16.08;6.43;;;28.30;99.90;;;;;;4995587;28;20034;-51
2023/08/06 08:23:25;;;;;;;10.00;3.70;;;28.30;99.90;;;;;;4995517;28;20390;-51
2023/08/06 08:25:51;;;;;;;13.88;3.85;;;28.40;99.90;;;;;;4995217;28;20424;-51
2023/08/06 08:28:17;;;;;;;7.57;1.67;;;28.40;99.90;;;;;;4995475;28;20097;-50
2023/08/06 08:30:42;;;;;;;8.63;3.60;;;28.40;99.90;;;;;;4995216;28;20053;-51
2023/08/06 08:33:08;;;;;;;7.55;3.45;;;28.40;99.90;;;;;;4995068;28;20029;-51
2023/08/06 08:35:36;;;;;;;5.18;2.40;;;28.40;99.90;;;;;;4995245;28;20400;-50
2023/08/06 08:38:01;;;;;;;;;;;28.40;99.90;;;;;;4995897;28;20023;-51
2023/08/06 08:40:31;;;;;;;9.20;2.40;;;28.40;99.90;;;;;;4995185;28;19921;-50
2023/08/06 08:42:58;;;;;;;7.57;1.63;;;28.40;99.90;;;;;;4982293;28;20026;-51
2023/08/06 08:45:28;;;;;;;6.32;1.45;;;28.50;99.90;;;;;;4995129;28;20073;-51
2023/08/06 08:47:54;;;;;;;3.72;1.13;;;28.50;99.90;;;;;;4994875;28;20029;-51
2023/08/06 08:50:21;;;;;;;4.88;0.80;;;28.50;99.90;;;;;;4994807;28;20031;-51
2023/08/06 08:52:50;;;;;;;3.53;1.02;;;28.60;99.90;;;;;;4994792;28;20374;-51
2023/08/06 08:55:16;;;;;;;5.95;1.13;;;28.60;99.90;;;;;;4994822;28;20493;-50
2023/08/06 08:57:43;;;;;;;5.82;0.90;;;28.60;99.90;;;;;;4994798;28;20346;-50
2023/08/06 09:00:09;;;;;;;3.33;1.23;;;28.60;99.90;;;;;;4994931;28;20025;-50
2023/08/06 09:02:37;;;;;;;4.00;1.20;;;28.60;99.90;;;;;;4993936;28;20046;-50
2023/08/06 09:05:05;;;;;;;5.00;1.65;;;28.70;99.90;;;;;;4994333;28;20022;-51
2023/08/06 09:07:43;;;;;;;9.60;3.40;;;28.70;99.90;;;;;;4994763;28;20037;-51
2023/08/06 09:10:13;;;;;;;6.70;1.33;;;28.70;99.90;;;;;;4994507;28;20023;-50
2023/08/06 09:12:40;;;;;;;8.55;1.83;;;28.70;99.90;;;;;;4994458;28;20529;-51
2023/08/06 09:15:06;;;;;;;5.53;2.17;;;28.80;99.90;;;;;;4994612;28;20037;-50
2023/08/06 09:17:32;;;;;;;5.07;2.22;;;28.80;99.90;;;;;;4994251;28;20049;-51
2023/08/06 09:19:57;;;;;;;3.08;1.02;;;28.80;99.90;;;;;;4994608;28;20069;-51
2023/08/06 09:22:23;;;;;;;8.65;1.45;;;28.90;99.90;;;;;;4994130;28;20399;-50
2023/08/06 09:24:49;;;;;;;7.00;2.60;;;28.90;99.90;;;;;;4994088;28;20532;-51
2023/08/06 09:27:16;;;;;;;6.32;3.03;;;28.90;99.90;;;;;;4976813;28;20509;-50
2023/08/06 09:29:45;;;;;;;14.50;3.10;;;28.90;99.90;;;;;;4994251;28;20030;-50
2023/08/06 09:32:14;;;;;;;2.67;1.10;;;29.00;99.90;;;;;;4993990;28;20116;-51
2023/08/06 09:34:42;;;;;;;7.93;3.08;;;29.00;99.90;;;;;;4994068;28;20062;-51
2023/08/06 09:37:11;;;;;;;11.10;3.78;;;29.10;99.90;;;;;;4993962;28;20109;-50
2023/08/06 09:39:39;;;;;;;2.33;1.15;;;29.10;99.90;;;;;;4993715;28;20023;-50
2023/08/06 09:42:05;;;;;;;6.68;1.17;;;29.10;99.90;;;;;;4994082;28;20026;-50
2023/08/06 09:44:33;;;;;;;3.58;1.60;;;29.10;99.90;;;;;;4993970;28;20121;-50
2023/08/06 09:47:03;;;;;;;2.13;1.20;;;29.20;99.90;;;;;;4993820;28;20031;-50
2023/08/06 09:49:45;;;;;;;9.05;1.60;;;29.20;99.90;;;;;;4992330;28;20034;-50
2023/08/06 09:52:12;;;;;;;5.38;3.08;;;29.30;99.90;;;;;;4993721;28;20490;-50
2023/08/06 09:54:38;;;;;;;6.00;1.95;;;29.30;99.90;;;;;;4993565;28;20030;-50
2023/08/06 09:57:05;;;;;;;9.07;5.35;;;29.40;99.90;;;;;;4993854;28;20089;-50
2023/08/06 09:59:32;;;;;;;4.32;1.00;;;29.40;99.90;;;;;;4993487;28;20037;-51
2023/08/06 10:01:58;;;;;;;6.53;1.17;;;29.50;99.90;;;;;;4992040;28;20052;-52
2023/08/06 10:04:24;;;;;;;4.88;2.05;;;29.50;99.90;;;;;;4993301;28;20042;-51
2023/08/06 10:06:51;;;;;;;11.25;4.75;;;29.50;99.90;;;;;;4993358;28;20035;-50
2023/08/06 10:09:18;;;;;;;10.50;5.45;;;29.60;99.90;;;;;;4992138;28;20027;-51
2023/08/06 10:11:47;;;;;;;4.90;1.33;;;29.60;99.90;;;;;;4993341;28;20441;-50
2023/08/06 10:14:15;;;;;;;8.50;1.05;;;29.60;99.90;;;;;;4993120;28;20027;-50
2023/08/06 10:16:42;;;;;;;13.30;6.68;;;29.70;99.90;;;;;;4993368;28;20076;-50
2023/08/06 10:19:11;;;;;;;9.63;2.40;;;29.70;99.90;;;;;;4992881;28;20094;-50
2023/08/06 10:21:39;;;;;;;8.98;1.35;;;29.70;99.90;;;;;;4993328;28;20497;-49
2023/08/06 10:24:10;;;;;;;6.10;1.10;;;29.70;99.90;;;;;;4993265;28;20355;-51
2023/08/06 10:26:37;;;;;;;5.25;1.52;;;29.80;99.90;;;;;;4993171;28;20446;-50
2023/08/06 10:29:38;;;;;;;7.72;0.95;;;29.80;99.90;;;;;;4992886;28;20112;-50
2023/08/06 10:32:06;;;;;;;2.90;0.82;;;29.80;99.90;;;;;;4993111;28;20054;-51
2023/08/06 10:34:57;;;;;;;4.32;0.70;;;29.80;99.90;;;;;;4992764;28;20030;-50
2023/08/06 10:37:36;;;;;;;7.47;1.83;;;29.90;99.90;;;;;;4992633;28;20097;-51
2023/08/06 10:40:03;;;;;;;4.40;1.08;;;29.90;99.90;;;;;;4992632;28;20062;-50
2023/08/06 10:42:30;;;;;;;4.13;0.93;;;29.90;99.90;;;;;;4992705;28;20030;-50
2023/08/06 10:45:19;;;;;;;4.03;1.10;;;29.90;99.90;;;;;;4992831;28;20394;-50
2023/08/06 10:47:45;;;;;;;3.22;1.05;;;29.90;99.90;;;;;;4992512;28;20383;-51
2023/08/06 10:50:19;;;;;;;9.13;1.47;;;30.00;99.90;;;;;;4992707;28;20410;-50
2023/08/06 10:52:45;;;;;;;5.72;1.50;;;30.00;99.90;;;;;;4992503;28;20061;-50
2023/08/06 10:55:12;;;;;;;9.85;1.30;;;30.00;99.90;;;;;;4991251;28;20029;-50
2023/08/06 10:57:38;;;;;;;5.75;1.00;;;30.00;99.90;;;;;;4992577;28;20049;-50
2023/08/06 11:00:08;;;;;;;5.85;1.17;;;30.10;99.90;;;;;;4992445;28;20113;-50
2023/08/06 11:02:37;;;;;;;11.05;1.20;;;30.10;99.90;;;;;;4991983;28;20038;-50
2023/08/06 11:05:11;;;;;;;6.57;1.73;;;30.10;99.90;;;;;;4992351;28;20035;-50
2023/08/06 11:07:37;;;;;;;11.20;1.58;;;30.10;99.90;;;;;;4992621;28;20025;-50
2023/08/06 11:10:05;;;;;;;5.57;2.17;;;30.10;99.90;;;;;;4992121;28;20026;-50
2023/08/06 11:12:35;;;;;;;6.85;2.50;;;30.20;99.90;;;;;;4992240;28;20627;-49
2023/08/06 11:15:02;;;;;;;5.10;1.38;;;30.20;99.90;;;;;;4992459;28;20447;-51
2023/08/06 11:17:29;;;;;;;6.38;1.60;;;30.30;99.90;;;;;;4991966;28;20053;-51
2023/08/06 11:19:55;;;;;;;4.85;1.17;;;30.30;99.90;;;;;;4990917;28;20022;-52
2023/08/06 11:22:23;;;;;;;4.75;1.30;;;30.30;99.90;;;;;;4992266;28;20411;-52
2023/08/06 11:24:49;;;;;;;2.58;1.17;;;30.40;99.90;;;;;;4992009;28;20050;-51
2023/08/06 11:27:16;;;;;;;3.83;1.27;;;30.40;99.90;;;;;;4991454;28;20409;-52
2023/08/06 11:29:43;;;;;;;6.07;1.40;;;30.40;99.90;;;;;;4992018;28;20068;-51
2023/08/06 11:32:09;;;;;;;10.85;1.73;;;30.40;99.90;;;;;;4992224;28;20470;-50
2023/08/06 11:34:36;;;;;;;5.28;1.33;;;30.40;99.90;;;;;;4990631;28;20030;-51
2023/08/06 11:37:06;;;;;;;8.43;2.45;;;30.40;99.90;;;;;;4992101;28;20030;-52
2023/08/06 11:39:36;;;;;;;6.22;1.23;;;30.40;99.90;;;;;;4991744;28;20438;-52
2023/08/06 11:42:06;;;;;;;7.68;1.45;;;30.40;99.90;;;;;;4992026;28;20387;-51
2023/08/06 11:44:36;;;;;;;9.18;1.55;;;30.40;99.90;;;;;;4991968;28;20030;-50
2023/08/06 11:47:05;;;;;;;4.30;2.25;;;30.40;99.90;;;;;;4992084;28;20554;-51
2023/08/06 11:49:49;;;;;;;5.80;2.60;;;30.40;99.90;;;;;;4991839;28;20474;-51
2023/08/06 11:52:15;;;;;;;4.93;1.33;;;30.40;99.90;;;;;;4989455;28;20022;-52
2023/08/06 11:54:42;;;;;;;5.63;1.95;;;30.40;99.90;;;;;;4989460;28;20061;-52
2023/08/06 11:57:08;;;;;;;6.25;1.75;;;30.40;99.90;;;;;;4991896;28;20026;-52
2023/08/06 11:59:34;;;;;;;7.73;1.30;;;30.50;99.90;;;;;;4990661;28;20053;-49
2023/08/06 12:02:07;;;;;;;6.32;2.50;;;30.50;99.90;;;;;;4990140;28;20791;-49
2023/08/06 12:05:00;;;;;;;5.85;1.33;;;30.50;99.90;;;;;;4989347;28;20042;-49
2023/08/06 12:07:30;;;;;;;3.10;1.52;;;30.50;99.90;;;;;;4984136;28;20058;-46
2023/08/06 12:09:57;;;;;;;5.32;1.67;;;30.50;99.90;;;;;;4990117;28;20467;-47
2023/08/06 12:12:23;;;;;;;9.57;1.88;;;30.50;99.90;;;;;;4991672;28;20383;-47
2023/08/06 12:14:49;;;;;;;7.53;1.77;;;30.60;99.90;;;;;;4991357;28;20026;-47
2023/08/06 12:17:15;;;;;;;3.83;1.20;;;30.60;99.90;;;;;;4991806;28;20049;-47
2023/08/06 12:19:40;;;;;;;8.20;1.70;;;30.70;99.90;;;;;;4991571;28;20542;-47
2023/08/06 12:22:06;;;;;;;7.80;1.48;;;30.70;99.90;;;;;;4984155;28;20033;-47
2023/08/06 12:24:32;;;;;;;6.20;1.27;;;30.70;99.90;;;;;;4978799;28;20037;-46
2023/08/06 12:26:58;;;;;;;6.10;2.83;;;30.70;99.90;;;;;;4986076;28;20029;-46
2023/08/06 12:29:25;;;;;;;4.82;1.27;;;30.70;99.90;;;;;;4988346;28;20026;-46
2023/08/06 12:31:51;;;;;;;3.50;1.73;;;30.80;99.90;;;;;;4985871;28;20019;-46
2023/08/06 12:34:17;;;;;;;6.40;2.50;;;30.80;99.90;;;;;;4987830;28;20508;-46
2023/08/06 12:36:42;;;;;;;11.55;1.60;;;30.80;99.90;;;;;;4979474;28;20591;-46
2023/08/06 12:39:08;;;;;;;13.68;3.47;;;30.80;99.90;;;;;;4979541;28;20022;-46
2023/08/06 12:41:34;;;;;;;13.18;1.88;;;30.80;99.90;;;;;;5003815;28;20027;-45
2023/08/06 12:44:00;;;;;;;10.05;1.75;;;30.80;99.90;;;;;;4984099;28;20045;-46
2023/08/06 12:46:26;;;;;;;5.00;1.85;;;30.90;99.90;;;;;;4983959;28;20470;-46